createdAt,value
2018-05-18T00:01:13.169Z,31.47
2018-05-18T00:06:06.613Z,29.80
2018-05-18T00:11:00.782Z,29.57
2018-05-18T00:15:54.185Z,26.30
2018-05-18T00:20:47.621Z,31.00
2018-05-18T00:25:42.055Z,30.30
2018-05-18T00:30:35.521Z,36.40
2018-05-18T00:35:29.672Z,35.80
2018-05-18T00:40:23.078Z,37.57
2018-05-18T00:45:16.527Z,36.47
2018-05-18T00:50:10.979Z,34.47
2018-05-18T00:55:11.553Z,34.80
2018-05-18T01:00:05.048Z,33.80
2018-05-18T01:04:59.232Z,30.17
2018-05-18T01:09:53.429Z,29.33
2018-05-18T01:14:47.754Z,28.27
2018-05-18T01:19:41.193Z,27.83
2018-05-18T01:24:34.710Z,29.17
2018-05-18T01:29:28.360Z,29.53
2018-05-18T01:34:22.697Z,28.00
2018-05-18T01:39:16.111Z,28.13
2018-05-18T01:44:10.300Z,28.47
2018-05-18T01:49:03.775Z,30.57
2018-05-18T01:53:57.210Z,30.37
2018-05-18T01:58:50.719Z,29.73
2018-05-18T02:03:44.281Z,29.33
2018-05-18T02:08:37.712Z,31.63
2018-05-18T02:13:31.168Z,32.20
2018-05-18T02:18:24.671Z,33.30
2018-05-18T02:23:18.126Z,27.70
2018-05-18T02:28:12.279Z,25.70
2018-05-18T02:33:05.787Z,24.57
2018-05-18T02:37:59.700Z,28.93
2018-05-18T02:42:53.227Z,26.27
2018-05-18T02:47:47.351Z,29.13
2018-05-18T02:52:41.186Z,27.73
2018-05-18T02:57:34.639Z,26.10
2018-05-18T03:02:29.158Z,29.07
2018-05-18T03:07:22.860Z,28.33
2018-05-18T03:12:16.715Z,30.53
2018-05-18T03:17:10.949Z,28.67
2018-05-18T03:22:04.433Z,25.03
2018-05-18T03:26:58.465Z,30.43
2018-05-18T03:31:51.955Z,30.90
2018-05-18T03:36:45.425Z,31.53
2018-05-18T03:41:39.374Z,31.80
2018-05-18T03:46:32.831Z,31.70
2018-05-18T03:51:26.492Z,25.80
2018-05-18T03:56:20.248Z,29.60
2018-05-18T04:01:31.516Z,33.83
2018-05-18T04:06:42.551Z,31.57
2018-05-18T04:11:36.026Z,26.03
2018-05-18T04:16:30.245Z,28.73
2018-05-18T04:21:23.714Z,28.30
2018-05-18T04:26:17.752Z,29.27
2018-05-18T04:31:11.413Z,29.37
2018-05-18T04:36:04.876Z,28.37
2018-05-18T04:40:58.631Z,32.93
2018-05-18T04:45:52.424Z,34.50
2018-05-18T04:50:45.859Z,38.77
2018-05-18T04:55:39.305Z,38.53
2018-05-18T05:00:32.761Z,35.27
2018-05-18T05:05:26.991Z,41.37
2018-05-18T05:10:20.469Z,39.60
2018-05-18T05:15:14.874Z,43.90
2018-05-18T05:20:09.174Z,46.33
2018-05-18T05:25:03.438Z,41.23
2018-05-18T05:29:57.702Z,40.07
2018-05-18T05:34:51.271Z,39.30
2018-05-18T05:39:44.803Z,39.73
2018-05-18T05:44:38.251Z,45.87
2018-05-18T05:49:31.760Z,38.83
2018-05-18T05:54:25.658Z,39.97
2018-05-18T05:59:19.078Z,37.47
2018-05-18T06:04:12.520Z,35.80
2018-05-18T06:09:05.994Z,36.43
2018-05-18T06:13:59.414Z,34.00
2018-05-18T06:18:53.605Z,32.40
2018-05-18T06:23:49.560Z,31.20
2018-05-18T06:28:43.271Z,33.93
2018-05-18T06:33:37.438Z,29.57
2018-05-18T06:38:37.621Z,29.03
2018-05-18T06:43:48.326Z,29.97
2018-05-18T06:48:42.794Z,30.87
2018-05-18T06:53:36.258Z,33.23
2018-05-18T06:58:43.923Z,31.87
2018-05-18T07:03:38.495Z,29.80
2018-05-18T07:08:32.033Z,31.53
2018-05-18T07:13:32.925Z,29.03
2018-05-18T07:18:31.204Z,26.53
2018-05-18T07:23:25.116Z,27.40
2018-05-18T07:28:18.576Z,27.60
2018-05-18T07:33:13.531Z,27.10
2018-05-18T07:38:07.064Z,27.53
2018-05-18T07:43:03.487Z,27.57
2018-05-18T07:47:57.148Z,27.60
2018-05-18T07:52:50.787Z,28.83
2018-05-18T07:57:44.223Z,28.30
2018-05-18T08:02:40.479Z,27.40
2018-05-18T08:07:34.616Z,28.83
2018-05-18T08:12:30.614Z,26.67
2018-05-18T08:17:24.369Z,28.10
2018-05-18T08:22:18.016Z,29.87
2018-05-18T08:27:23.473Z,30.60
2018-05-18T08:32:16.864Z,30.27
2018-05-18T08:37:10.307Z,28.30
2018-05-18T08:42:04.607Z,29.40
2018-05-18T08:46:58.198Z,27.67
2018-05-18T08:51:52.057Z,28.63
2018-05-18T08:56:46.429Z,31.60
2018-05-18T09:01:40.157Z,28.53
2018-05-18T09:06:33.722Z,28.53
2018-05-18T09:11:33.610Z,27.97
2018-05-18T09:16:28.582Z,28.93
2018-05-18T09:21:23.035Z,28.63
2018-05-18T09:26:16.489Z,29.67
2018-05-18T09:31:10.736Z,26.07
2018-05-18T09:36:07.223Z,28.17
2018-05-18T09:41:02.196Z,24.83
2018-05-18T09:45:57.510Z,24.73
2018-05-18T09:50:54.584Z,22.97
2018-05-18T09:55:51.249Z,21.70
2018-05-18T10:00:53.396Z,23.37
2018-05-18T10:05:53.377Z,21.00
2018-05-18T10:10:52.731Z,23.97
2018-05-18T10:15:53.290Z,22.03
2018-05-18T10:20:53.169Z,21.77
2018-05-18T10:25:52.764Z,21.50
2018-05-18T10:30:50.562Z,20.53
2018-05-18T10:35:50.614Z,21.37
2018-05-18T10:40:46.616Z,21.40
2018-05-18T10:45:40.307Z,20.43
2018-05-18T10:50:33.817Z,21.03
2018-05-18T10:55:27.587Z,19.63
2018-05-18T11:00:21.074Z,16.13
2018-05-18T11:05:20.555Z,13.87
2018-05-18T11:10:14.519Z,13.60
2018-05-18T11:15:15.415Z,16.07
2018-05-18T11:20:09.660Z,13.43
2018-05-18T11:25:11.220Z,15.00
2018-05-18T11:30:12.480Z,14.87
2018-05-18T11:46:04.808Z,15.23
2018-05-18T11:56:28.375Z,15.87
2018-05-18T12:01:22.159Z,15.97
2018-05-18T12:06:16.758Z,14.10
2018-05-18T12:11:11.276Z,12.43
2018-05-18T12:16:09.327Z,10.90
2018-05-18T12:26:31.872Z,14.87
2018-05-18T12:31:31.534Z,11.37
2018-05-18T12:36:25.866Z,12.90
2018-05-18T12:41:20.285Z,9.13
2018-05-18T12:46:15.767Z,10.60
2018-05-18T12:51:10.714Z,6.97
2018-05-18T12:56:04.276Z,6.17
2018-05-18T13:00:57.821Z,7.17
2018-05-18T13:05:51.780Z,5.97
2018-05-18T13:10:45.389Z,5.10
2018-05-18T13:15:40.721Z,7.80
2018-05-18T13:20:34.553Z,7.80
2018-05-18T13:25:28.474Z,7.57
2018-05-18T13:30:23.552Z,6.67
2018-05-18T13:35:17.740Z,5.70
2018-05-18T13:40:15.008Z,6.60
2018-05-18T13:45:12.009Z,5.60
2018-05-18T13:50:07.406Z,5.53
2018-05-18T13:55:04.768Z,6.50
2018-05-18T14:16:28.959Z,8.37
2018-05-18T14:26:57.470Z,7.67
2018-05-18T14:37:22.726Z,6.30
2018-05-18T14:42:19.051Z,6.67
2018-05-18T14:47:14.385Z,6.40
2018-05-18T14:52:13.172Z,6.50
2018-05-18T15:08:04.552Z,5.37
2018-05-18T15:12:59.226Z,5.43
2018-05-18T15:17:53.683Z,5.90
2018-05-18T15:22:47.452Z,5.85
2018-05-18T15:27:41.050Z,6.20
2018-05-18T15:32:34.502Z,5.23
2018-05-18T15:37:30.002Z,6.07
2018-05-18T15:42:23.463Z,6.90
2018-05-18T15:47:16.913Z,7.43
2018-05-18T15:52:10.508Z,7.37
2018-05-18T15:57:04.109Z,7.73
2018-05-18T16:01:58.278Z,7.33
2018-05-18T16:06:51.739Z,7.97
2018-05-18T16:11:45.406Z,8.27
2018-05-18T16:16:39.350Z,6.53
2018-05-18T16:21:32.779Z,7.17
2018-05-18T16:26:26.171Z,6.80
2018-05-18T16:31:19.621Z,7.07
2018-05-18T16:36:13.051Z,6.70
2018-05-18T16:41:06.514Z,5.80
2018-05-18T16:45:59.993Z,6.67
2018-05-18T16:50:53.461Z,5.50
2018-05-18T16:55:47.326Z,5.63
2018-05-18T17:00:40.759Z,6.13
2018-05-18T17:05:34.224Z,6.10
2018-05-18T17:10:27.610Z,5.97
2018-05-18T17:15:21.837Z,6.03
2018-05-18T17:20:15.261Z,6.60
2018-05-18T17:25:09.741Z,5.43
2018-05-18T17:30:03.364Z,6.07
2018-05-18T17:34:56.793Z,6.17
2018-05-18T17:39:50.237Z,6.03
2018-05-18T17:44:43.704Z,6.43
2018-05-18T17:49:37.307Z,7.00
2018-05-18T17:54:30.838Z,7.10
2018-05-18T17:59:24.998Z,7.33
2018-05-18T18:04:18.467Z,7.30
2018-05-18T18:09:12.745Z,7.73
2018-05-18T18:14:06.356Z,7.80
2018-05-18T18:18:59.757Z,9.00
2018-05-18T18:23:54.075Z,7.60
2018-05-18T18:28:47.604Z,8.03
2018-05-18T18:33:40.964Z,7.77
2018-05-18T18:38:35.464Z,8.67
2018-05-18T18:43:29.694Z,7.47
2018-05-18T18:48:23.185Z,7.23
2018-05-18T18:53:16.621Z,9.43
2018-05-18T18:58:10.993Z,8.77
2018-05-18T19:03:04.783Z,8.80
2018-05-18T19:07:58.321Z,8.43
2018-05-18T19:12:52.429Z,8.07
2018-05-18T19:17:46.623Z,7.67
2018-05-18T19:22:40.858Z,6.43
2018-05-18T19:27:34.609Z,6.20
2018-05-18T19:32:28.067Z,6.33
2018-05-18T19:37:22.300Z,6.57
2018-05-18T19:42:15.754Z,6.33
2018-05-18T19:47:09.169Z,5.77
2018-05-18T19:52:02.654Z,4.70
2018-05-18T19:56:56.094Z,7.20
2018-05-18T20:01:49.542Z,8.10
2018-05-18T20:06:42.995Z,8.70
2018-05-18T20:11:37.169Z,9.00
2018-05-18T20:16:31.652Z,8.20
2018-05-18T20:21:25.166Z,8.87
2018-05-18T20:26:18.726Z,9.80
2018-05-18T20:31:13.012Z,9.57
2018-05-18T20:36:07.257Z,9.57
2018-05-18T20:41:00.925Z,7.80
2018-05-18T20:45:54.346Z,9.70
2018-05-18T20:50:47.812Z,9.57
2018-05-18T20:55:42.038Z,10.53
2018-05-18T21:00:35.482Z,8.07
2018-05-18T21:05:29.778Z,9.73
2018-05-18T21:10:23.985Z,10.77
2018-05-18T21:15:17.475Z,9.90
2018-05-18T21:20:10.923Z,10.87
2018-05-18T21:25:04.462Z,10.47
2018-05-18T21:29:57.920Z,10.13
2018-05-18T21:34:51.347Z,7.07
2018-05-18T21:39:45.556Z,9.43
2018-05-18T21:44:38.978Z,8.30
2018-05-18T21:49:33.417Z,7.20
2018-05-18T21:54:26.867Z,7.40
2018-05-18T21:59:20.406Z,8.83
2018-05-18T22:04:13.891Z,12.07
2018-05-18T22:09:07.623Z,10.77
2018-05-18T22:14:01.209Z,9.83
2018-05-18T22:18:54.734Z,9.83
2018-05-18T22:23:49.137Z,9.23
2018-05-18T22:28:42.590Z,10.77
2018-05-18T22:33:36.051Z,11.43
2018-05-18T22:38:30.260Z,10.40
2018-05-18T22:43:23.691Z,11.27
2018-05-18T22:48:17.318Z,9.10
2018-05-18T22:53:11.571Z,8.93
2018-05-18T22:58:05.890Z,8.80
2018-05-18T23:03:00.240Z,10.30
2018-05-18T23:07:53.690Z,10.60
2018-05-18T23:12:47.120Z,10.03
2018-05-18T23:17:40.507Z,9.87
2018-05-18T23:22:35.007Z,10.57
2018-05-18T23:27:29.347Z,8.80
2018-05-18T23:32:22.878Z,8.73
2018-05-18T23:37:16.330Z,8.50
2018-05-18T23:42:10.526Z,8.00
2018-05-18T23:47:04.840Z,6.80
2018-05-18T23:51:58.364Z,7.30
2018-05-18T23:56:51.829Z,8.20
